Time;durP1;ratioP1;P1;durP2;ratioP2;P2;SDS_P1;SDS_P2;PMS_P1;PMS_P2;Temp;Humidity;BMP_temperature;BMP_pressure;BME280_temperature;BME280_humidity;BME280_pressure;Samples;Min_cycle;Max_cycle;Signal;HPM_P1;HPM_P2
2022/01/10 00:00:00;;;;;;;21.70;12.18;;;;;;;;;;5107245;28;20016;-86
2022/01/10 00:02:26;;;;;;;28.75;13.00;;;1.90;99.90;;;;;;5111709;28;20023;-87
2022/01/10 00:04:52;;;;;;;29.88;13.02;;;;;;;;;;5111540;28;20045;-84
2022/01/10 00:07:17;;;;;;;20.70;11.43;;;1.90;99.90;;;;;;5111838;28;20053;-85
2022/01/10 00:09:43;;;;;;;30.38;13.07;;;1.90;99.90;;;;;;5107991;28;20067;-86
2022/01/10 00:12:10;;;;;;;25.80;13.30;;;1.50;99.90;;;;;;5111753;28;20091;-83
2022/01/10 00:14:36;;;;;;;24.75;12.82;;;;;;;;;;5108676;28;20023;-87
2022/01/10 00:17:02;;;;;;;28.13;13.43;;;;;;;;;;5104830;28;20091;-84
2022/01/10 00:19:27;;;;;;;27.88;13.32;;;1.80;99.90;;;;;;5110761;28;20023;-88
2022/01/10 00:21:53;;;;;;;21.70;12.15;;;1.70;99.90;;;;;;5104546;28;20020;-87
2022/01/10 00:24:19;;;;;;;27.80;13.40;;;;;;;;;;5109324;28;20019;-86
2022/01/10 00:26:45;;;;;;;28.23;13.23;;;1.90;99.90;;;;;;5126146;28;20028;-87
2022/01/10 00:29:10;;;;;;;33.58;14.40;;;2.30;99.90;;;;;;5105694;28;20024;-85
2022/01/10 00:31:36;;;;;;;30.95;13.40;;;3.10;99.90;;;;;;5105402;28;20020;-86
2022/01/10 00:34:02;;;;;;;38.25;15.38;;;1.70;99.90;;;;;;5109331;28;20044;-85
2022/01/10 00:36:27;;;;;;;38.90;14.43;;;2.00;99.90;;;;;;5110182;28;20039;-86
2022/01/10 00:38:53;;;;;;;42.25;14.30;;;4.60;99.90;;;;;;5111091;28;20046;-86
2022/01/10 00:41:19;;;;;;;35.60;14.32;;;;;;;;;;5116494;28;20046;-87
2022/01/10 00:43:49;;;;;;;37.75;14.02;;;1.80;99.90;;;;;;5109367;28;20023;-85
2022/01/10 00:46:15;;;;;;;37.85;13.93;;;;;;;;;;5106020;28;20028;-88
2022/01/10 00:48:41;;;;;;;68.35;14.10;;;1.80;99.90;;;;;;5106802;28;20039;-88
2022/01/10 00:51:07;;;;;;;45.38;14.60;;;1.80;99.90;;;;;;5106609;28;20028;-86
2022/01/10 00:53:32;;;;;;;37.85;13.32;;;1.80;99.90;;;;;;5107546;28;20019;-88
2022/01/10 00:55:58;;;;;;;28.00;12.85;;;1.70;99.90;;;;;;5116155;28;20011;-86
2022/01/10 00:58:24;;;;;;;32.70;13.82;;;1.70;99.90;;;;;;5113206;28;20036;-87
2022/01/10 01:00:51;;;;;;;45.88;14.00;;;2.30;99.90;;;;;;5109632;28;20043;-84
2022/01/10 01:03:17;;;;;;;33.30;13.25;;;3.80;99.90;;;;;;5114382;27;20011;-88
2022/01/10 01:05:44;;;;;;;31.33;13.13;;;;;;;;;;5106681;28;20036;-86
2022/01/10 01:08:12;;;;;;;43.30;12.40;;;1.70;99.90;;;;;;5112085;28;20092;-85
2022/01/10 01:13:35;;;;;;;44.78;13.52;;;1.60;99.90;;;;;;5128414;28;20011;-86
2022/01/10 01:24:04;;;;;;;78.88;15.32;;;1.50;99.90;;;;;;5124042;28;20063;-87
2022/01/10 01:26:39;;;;;;;89.57;13.98;;;1.50;99.90;;;;;;5109847;28;20046;-87
2022/01/10 01:29:06;;;;;;;73.60;15.82;;;0.90;99.90;;;;;;5106281;28;20035;-87
2022/01/10 01:31:32;;;;;;;58.42;12.98;;;0.80;99.90;;;;;;5123389;28;20015;-88
2022/01/10 01:33:58;;;;;;;52.53;12.15;;;1.20;99.90;;;;;;5114365;28;20024;-88
2022/01/10 01:36:25;;;;;;;61.65;12.70;;;3.50;99.90;;;;;;5127004;28;20016;-89
2022/01/10 01:38:53;;;;;;;85.40;13.00;;;1.30;99.90;;;;;;5114423;28;20012;-84
2022/01/10 01:43:55;;;;;;;47.70;13.43;;;1.50;99.90;;;;;;5119456;27;20072;-85
2022/01/10 01:46:22;;;;;;;36.22;11.82;;;1.40;99.90;;;;;;5106385;28;20119;-85
2022/01/10 01:48:48;;;;;;;93.97;15.68;;;1.30;99.90;;;;;;5108700;28;20027;-85
2022/01/10 01:51:14;;;;;;;74.35;13.27;;;1.20;99.90;;;;;;5105140;28;20043;-85
2022/01/10 01:53:40;;;;;;;39.55;11.88;;;0.20;99.90;;;;;;5108341;28;20430;-84
2022/01/10 01:56:08;;;;;;;39.90;12.23;;;3.70;99.90;;;;;;5106206;28;20053;-85
2022/01/10 01:58:35;;;;;;;33.33;12.27;;;1.30;99.90;;;;;;5111484;28;20015;-88
2022/01/10 02:01:02;;;;;;;29.50;12.00;;;1.20;99.90;;;;;;5113530;27;20007;-88
2022/01/10 02:03:29;;;;;;;37.03;13.48;;;1.30;99.90;;;;;;5111294;28;20116;-87
2022/01/10 02:05:55;;;;;;;54.95;13.30;;;1.50;99.90;;;;;;5110968;28;20091;-87
2022/01/10 02:08:21;;;;;;;43.72;12.70;;;1.30;99.90;;;;;;5106237;28;20031;-85
2022/01/10 02:10:46;;;;;;;46.20;13.18;;;0.70;99.90;;;;;;5114160;28;20043;-89
2022/01/10 02:13:12;;;;;;;65.75;12.63;;;;;;;;;;5110484;28;20012;-87
2022/01/10 02:15:59;;;;;;;38.22;12.88;;;1.60;99.90;;;;;;5110308;28;20046;-86
2022/01/10 02:18:26;;;;;;;50.03;13.05;;;;;;;;;;5103779;28;20087;-88
2022/01/10 02:20:52;;;;;;;51.03;13.77;;;1.60;99.90;;;;;;5122507;28;20092;-86
2022/01/10 02:23:18;;;;;;;46.92;12.52;;;0.90;99.90;;;;;;5106701;28;20024;-84
2022/01/10 02:25:45;;;;;;;52.92;14.07;;;1.40;99.90;;;;;;5109435;28;20031;-85
2022/01/10 02:28:14;;;;;;;38.30;13.27;;;;;;;;;;5110006;28;20023;-86
2022/01/10 02:30:40;;;;;;;63.97;12.07;;;;;;;;;;5113089;28;20032;-88
2022/01/10 02:33:07;;;;;;;34.17;11.88;;;;;;;;;;5108877;28;20032;-87
2022/01/10 02:35:40;;;;;;;42.50;11.77;;;1.50;99.90;;;;;;5111765;28;20054;-86
2022/01/10 02:38:06;;;;;;;28.10;10.75;;;3.90;99.90;;;;;;5113313;28;20027;-83
2022/01/10 02:40:34;;;;;;;53.75;10.75;;;;;;;;;;5109504;28;20035;-85
2022/01/10 02:43:00;;;;;;;40.30;10.65;;;;;;;;;;5111851;28;20097;-86
2022/01/10 02:45:26;;;;;;;53.70;12.43;;;1.50;99.90;;;;;;5109345;28;20415;-89
2022/01/10 02:47:53;;;;;;;31.10;10.10;;;1.40;99.90;;;;;;5108462;28;20024;-85
2022/01/10 02:50:20;;;;;;;33.85;10.38;;;1.50;99.90;;;;;;5105254;28;20031;-85
2022/01/10 02:52:47;;;;;;;62.47;11.90;;;1.40;99.90;;;;;;5109366;28;20061;-84
2022/01/10 02:55:13;;;;;;;34.83;11.02;;;1.40;99.90;;;;;;5112491;28;20049;-86
2022/01/10 02:57:39;;;;;;;86.88;14.25;;;;;;;;;;5113198;28;20020;-87
2022/01/10 03:00:16;;;;;;;67.07;11.93;;;1.50;99.90;;;;;;5110012;28;20031;-85
2022/01/10 03:02:44;;;;;;;36.05;10.38;;;;;;;;;;5111521;28;20035;-86
2022/01/10 03:05:11;;;;;;;43.47;10.93;;;1.40;99.90;;;;;;5111660;28;20007;-86
2022/01/10 03:07:37;;;;;;;27.00;10.50;;;1.40;99.90;;;;;;5105587;28;20008;-86
2022/01/10 03:10:05;;;;;;;28.30;10.82;;;1.10;99.90;;;;;;5114795;28;20743;-83
2022/01/10 03:12:31;;;;;;;37.10;10.63;;;;;;;;;;5112200;27;20506;-85
2022/01/10 03:14:58;;;;;;;29.27;11.05;;;1.40;99.90;;;;;;5110449;28;20130;-85
2022/01/10 03:17:24;;;;;;;33.80;10.38;;;;;;;;;;5116727;28;20650;-88
2022/01/10 03:19:50;;;;;;;43.65;11.95;;;1.50;99.90;;;;;;5111973;28;20087;-88
2022/01/10 03:22:16;;;;;;;28.98;11.15;;;1.40;99.90;;;;;;5116318;28;20386;-90
2022/01/10 03:24:42;;;;;;;36.42;11.13;;;2.80;99.90;;;;;;5116353;28;20035;-86
2022/01/10 03:27:08;;;;;;;37.08;11.35;;;;;;;;;;5117642;28;20030;-89
2022/01/10 03:29:33;;;;;;;49.35;12.70;;;1.50;99.90;;;;;;5113789;28;20040;-88
2022/01/10 03:32:01;;;;;;;53.80;11.48;;;;;;;;;;5108224;28;20139;-87
2022/01/10 03:34:28;;;;;;;39.85;11.43;;;1.40;99.90;;;;;;5112430;28;20182;-88
2022/01/10 03:36:54;;;;;;;43.35;11.80;;;1.40;99.90;;;;;;5107570;28;20444;-83
2022/01/10 03:39:20;;;;;;;35.08;11.32;;;;;;;;;;5107896;27;20043;-88
2022/01/10 03:41:46;;;;;;;28.45;11.25;;;1.50;99.90;;;;;;5115791;28;20043;-88
2022/01/10 03:44:12;;;;;;;45.20;11.45;;;4.60;99.90;;;;;;5126454;27;20059;-89
2022/01/10 03:46:38;;;;;;;45.45;12.30;;;4.30;99.90;;;;;;5107285;28;20034;-87
2022/01/10 03:49:05;;;;;;;49.78;12.10;;;1.60;99.90;;;;;;5109355;28;20028;-86
2022/01/10 03:51:31;;;;;;;50.25;12.55;;;2.10;99.90;;;;;;5111103;28;20020;-85
2022/01/10 03:53:57;;;;;;;43.03;12.38;;;0.40;99.90;;;;;;5108534;28;20043;-85
2022/01/10 03:56:25;;;;;;;33.17;10.65;;;1.50;99.90;;;;;;5108070;28;20012;-85
2022/01/10 03:58:51;;;;;;;40.38;11.38;;;1.30;99.90;;;;;;5108071;28;20027;-87
2022/01/10 04:01:17;;;;;;;49.22;11.45;;;1.40;99.90;;;;;;5113430;28;20022;-89
2022/01/10 04:03:43;;;;;;;33.38;12.05;;;1.40;99.90;;;;;;5115988;28;20033;-86
2022/01/10 04:06:09;;;;;;;37.53;12.20;;;3.50;99.90;;;;;;5109749;28;20036;-86
2022/01/10 04:08:35;;;;;;;38.33;10.35;;;1.50;99.90;;;;;;5110115;28;20028;-86
2022/01/10 04:11:01;;;;;;;30.08;10.60;;;1.50;99.90;;;;;;5109672;28;20024;-85
2022/01/10 04:13:26;;;;;;;25.55;8.90;;;4.30;99.90;;;;;;5108734;28;20026;-89
2022/01/10 04:15:52;;;;;;;24.25;8.95;;;;;;;;;;5100041;28;20258;-86
2022/01/10 04:18:19;;;;;;;28.83;9.70;;;1.50;99.90;;;;;;5108264;28;20019;-85
2022/01/10 04:20:45;;;;;;;28.08;10.05;;;2.70;99.90;;;;;;5109676;28;20047;-88
2022/01/10 04:23:13;;;;;;;31.63;10.20;;;1.40;99.90;;;;;;5104769;28;20030;-85
2022/01/10 04:25:39;;;;;;;39.35;11.00;;;0.00;99.90;;;;;;5108691;28;20011;-90
2022/01/10 04:28:05;;;;;;;133.55;25.90;;;2.70;99.90;;;;;;5110045;28;20020;-90
2022/01/10 04:30:31;;;;;;;43.80;12.27;;;2.70;99.90;;;;;;5113372;28;20019;-89
2022/01/10 04:33:00;;;;;;;32.13;11.82;;;3.50;99.90;;;;;;5115693;28;20029;-87
2022/01/10 04:35:27;;;;;;;44.00;10.63;;;3.50;99.90;;;;;;5110166;28;20084;-86
2022/01/10 04:37:53;;;;;;;23.70;9.18;;;;;;;;;;5111862;28;20027;-87
2022/01/10 04:40:19;;;;;;;55.45;11.40;;;1.30;99.90;;;;;;5110206;28;20032;-84
2022/01/10 04:42:46;;;;;;;25.00;10.93;;;2.10;99.90;;;;;;5107415;28;20012;-84
2022/01/10 04:45:12;;;;;;;22.10;8.98;;;3.30;99.90;;;;;;5111141;28;20024;-85
2022/01/10 04:47:38;;;;;;;28.67;10.63;;;1.00;99.90;;;;;;5103830;28;20038;-87
2022/01/10 04:52:47;;;;;;;45.10;11.32;;;1.20;99.90;;;;;;5121961;28;20032;-84
2022/01/10 04:55:14;;;;;;;33.78;10.55;;;3.20;99.90;;;;;;5108491;28;20034;-84
2022/01/10 04:57:40;;;;;;;22.58;9.55;;;1.30;99.90;;;;;;5106686;28;20039;-84
2022/01/10 05:00:08;;;;;;;38.42;9.80;;;3.90;99.90;;;;;;5108555;28;20091;-87
2022/01/10 05:02:34;;;;;;;38.97;9.90;;;1.40;99.90;;;;;;5109602;28;20020;-86
2022/01/10 05:05:00;;;;;;;31.55;10.52;;;3.50;99.90;;;;;;5111511;28;20020;-86
2022/01/10 05:07:25;;;;;;;48.83;10.23;;;0.60;99.90;;;;;;5106108;28;20028;-88
2022/01/10 05:09:51;;;;;;;27.13;8.38;;;3.60;99.90;;;;;;5108926;28;20020;-86
2022/01/10 05:12:17;;;;;;;27.00;10.10;;;0.70;99.90;;;;;;5106512;28;20058;-84
2022/01/10 05:14:42;;;;;;;30.42;9.10;;;1.40;99.90;;;;;;5125142;27;20037;-86
2022/01/10 05:17:10;;;;;;;36.20;9.55;;;4.40;99.90;;;;;;5107694;28;20028;-86
2022/01/10 05:19:35;;;;;;;35.65;9.73;;;1.10;99.90;;;;;;5104784;28;20038;-83
2022/01/10 05:22:01;;;;;;;45.03;9.00;;;;;;;;;;5108945;28;20031;-84
2022/01/10 05:24:27;;;;;;;36.33;9.60;;;;;;;;;;5111036;28;20648;-85
2022/01/10 05:26:53;;;;;;;47.25;10.55;;;;;;;;;;5108196;28;20035;-87
2022/01/10 05:29:19;;;;;;;47.72;10.93;;;1.20;99.90;;;;;;5112575;28;20027;-83
2022/01/10 05:31:45;;;;;;;34.60;9.25;;;;;;;;;;5102341;28;20032;-85
2022/01/10 05:34:11;;;;;;;32.80;9.18;;;1.20;99.90;;;;;;5108062;28;20122;-82
2022/01/10 05:36:37;;;;;;;63.45;10.82;;;3.50;99.90;;;;;;5103909;28;20032;-84
2022/01/10 05:39:03;;;;;;;57.95;11.13;;;1.00;99.90;;;;;;5107404;28;20023;-84
2022/01/10 05:41:29;;;;;;;65.93;10.15;;;0.90;99.90;;;;;;5097588;28;20053;-85
2022/01/10 05:43:55;;;;;;;38.53;9.38;;;0.80;99.90;;;;;;5103953;28;20091;-84
2022/01/10 05:46:22;;;;;;;37.17;8.80;;;0.70;99.90;;;;;;5105170;28;20024;-86
2022/01/10 05:48:52;;;;;;;29.52;8.77;;;1.20;99.90;;;;;;5102096;28;20057;-88
2022/01/10 05:51:18;;;;;;;39.08;8.95;;;3.20;99.90;;;;;;5102158;28;20047;-85
2022/01/10 05:53:43;;;;;;;39.60;9.25;;;2.50;99.90;;;;;;5097977;28;20031;-84
2022/01/10 05:56:09;;;;;;;60.90;9.77;;;1.00;99.90;;;;;;5099856;28;20035;-84
2022/01/10 05:58:35;;;;;;;27.30;8.85;;;0.10;99.90;;;;;;5108422;28;20491;-83
2022/01/10 06:01:01;;;;;;;32.38;8.43;;;3.80;99.90;;;;;;5098957;28;20031;-84
2022/01/10 06:03:26;;;;;;;28.30;8.88;;;2.50;99.90;;;;;;5101138;28;20032;-84
2022/01/10 06:05:52;;;;;;;30.98;8.52;;;1.90;99.90;;;;;;5097510;28;20050;-86
2022/01/10 06:08:18;;;;;;;32.40;9.02;;;0.70;99.90;;;;;;5114010;28;20054;-83
2022/01/10 06:10:43;;;;;;;18.65;8.65;;;0.80;99.90;;;;;;5099967;28;20051;-84
2022/01/10 06:13:09;;;;;;;19.40;8.52;;;1.60;99.90;;;;;;5099690;28;20046;-83
2022/01/10 06:15:35;;;;;;;50.92;9.68;;;0.90;99.90;;;;;;5097262;28;20028;-82
2022/01/10 06:18:02;;;;;;;37.75;9.63;;;0.90;99.90;;;;;;5098699;28;20066;-86
2022/01/10 06:20:28;;;;;;;30.60;10.45;;;;;;;;;;5099960;28;20035;-87
2022/01/10 06:22:54;;;;;;;24.67;8.70;;;0.80;99.90;;;;;;5102854;28;20031;-82
2022/01/10 06:25:23;;;;;;;26.80;9.00;;;0.70;99.90;;;;;;5101282;28;20023;-82
2022/01/10 06:27:49;;;;;;;41.55;9.70;;;-0.30;99.90;;;;;;5096062;28;20024;-83
2022/01/10 06:30:15;;;;;;;36.75;12.20;;;3.10;99.90;;;;;;5103006;28;20055;-84
2022/01/10 06:32:42;;;;;;;22.02;9.30;;;;;;;;;;5106504;28;20024;-87
2022/01/10 06:35:08;;;;;;;39.03;10.27;;;0.70;99.90;;;;;;5114656;28;20221;-86
2022/01/10 06:37:34;;;;;;;27.70;10.18;;;;;;;;;;5112405;28;20023;-87
2022/01/10 06:40:00;;;;;;;31.80;10.10;;;0.70;99.90;;;;;;5111490;28;20142;-88
2022/01/10 06:42:26;;;;;;;56.10;10.02;;;;;;;;;;5113398;28;20022;-85
2022/01/10 06:44:51;;;;;;;17.77;8.18;;;0.70;99.90;;;;;;5102550;28;20080;-83
2022/01/10 06:47:17;;;;;;;23.98;10.15;;;3.10;99.90;;;;;;5101527;28;20036;-85
2022/01/10 06:49:43;;;;;;;34.88;11.45;;;2.80;99.90;;;;;;5104011;28;20093;-83
2022/01/10 06:52:09;;;;;;;33.53;11.18;;;;;;;;;;5102974;28;20031;-85
2022/01/10 06:54:35;;;;;;;29.15;12.27;;;;;;;;;;5104493;28;20020;-85
2022/01/10 06:57:01;;;;;;;31.17;11.68;;;0.90;99.90;;;;;;5104940;28;20038;-84
2022/01/10 06:59:30;;;;;;;29.48;12.35;;;0.80;99.90;;;;;;5108070;28;20032;-87
2022/01/10 07:01:58;;;;;;;23.73;9.07;;;;;;;;;;5101107;28;20031;-84
2022/01/10 07:04:24;;;;;;;31.23;11.30;;;0.90;99.90;;;;;;5100455;28;20048;-84
2022/01/10 07:06:49;;;;;;;30.73;11.48;;;2.00;99.90;;;;;;5108801;28;20023;-82
2022/01/10 07:09:15;;;;;;;24.23;10.25;;;-0.80;99.90;;;;;;5107613;28;20027;-84
2022/01/10 07:11:44;;;;;;;21.15;9.70;;;;;;;;;;5100453;28;20032;-83
2022/01/10 07:14:14;;;;;;;25.45;9.73;;;1.00;99.90;;;;;;5104011;28;20031;-84
2022/01/10 07:16:40;;;;;;;29.42;10.75;;;0.70;99.90;;;;;;5105884;28;20024;-84
2022/01/10 07:19:06;;;;;;;36.08;11.02;;;0.90;99.90;;;;;;5104144;28;20040;-83
2022/01/10 07:21:33;;;;;;;28.33;10.38;;;0.90;99.90;;;;;;5105284;28;20024;-83
2022/01/10 07:23:59;;;;;;;23.88;9.63;;;3.50;99.90;;;;;;5092406;28;20047;-84
2022/01/10 07:26:25;;;;;;;33.60;11.52;;;-0.10;99.90;;;;;;5094308;28;20035;-83
2022/01/10 07:28:51;;;;;;;29.45;10.35;;;2.60;99.90;;;;;;5102022;28;20016;-83
2022/01/10 07:31:17;;;;;;;39.88;11.55;;;0.60;99.90;;;;;;5111909;28;20034;-83
2022/01/10 07:33:43;;;;;;;35.50;10.13;;;;;;;;;;5107240;28;20522;-83
2022/01/10 07:36:09;;;;;;;43.25;11.27;;;0.90;99.90;;;;;;5107062;28;20045;-86
2022/01/10 07:38:35;;;;;;;25.60;10.50;;;-1.50;99.90;;;;;;5108625;28;20032;-84
2022/01/10 07:41:06;;;;;;;25.73;10.95;;;1.20;99.90;;;;;;5111727;28;20035;-84
2022/01/10 07:43:32;;;;;;;30.45;11.15;;;;;;;;;;5109581;28;20023;-86
2022/01/10 07:45:58;;;;;;;28.83;11.35;;;;;;;;;;5104726;28;20020;-84
2022/01/10 07:48:26;;;;;;;36.05;11.70;;;1.00;99.90;;;;;;5105049;28;20027;-87
2022/01/10 07:50:52;;;;;;;26.13;9.93;;;;;;;;;;5099527;28;20047;-83
2022/01/10 07:53:18;;;;;;;23.17;11.10;;;;;;;;;;5108336;28;20042;-85
2022/01/10 07:55:45;;;;;;;29.83;11.43;;;;;;;;;;5099492;28;20058;-87
2022/01/10 07:58:11;;;;;;;26.38;10.80;;;;;;;;;;5099060;28;20036;-82
2022/01/10 08:00:37;;;;;;;28.00;10.65;;;;;;;;;;5102330;27;20087;-86
2022/01/10 08:03:03;;;;;;;41.40;11.10;;;;;;;;;;5102639;28;20019;-83
2022/01/10 08:05:29;;;;;;;22.95;10.60;;;1.00;99.90;;;;;;5113106;28;20499;-84
2022/01/10 08:07:54;;;;;;;32.28;10.75;;;1.10;99.90;;;;;;5105936;28;20032;-82
2022/01/10 08:10:20;;;;;;;41.08;9.18;;;1.10;99.90;;;;;;5110496;28;20023;-85
2022/01/10 08:12:46;;;;;;;29.40;9.35;;;2.40;99.90;;;;;;5106993;28;20027;-86
2022/01/10 08:15:12;;;;;;;31.65;9.57;;;;;;;;;;5107690;28;20028;-84
2022/01/10 08:17:38;;;;;;;31.75;8.85;;;;;;;;;;5108124;28;20069;-82
2022/01/10 08:20:05;;;;;;;28.58;8.90;;;0.90;99.90;;;;;;5105894;28;20031;-84
2022/01/10 08:22:31;;;;;;;25.98;9.30;;;;;;;;;;5110761;28;20032;-85
2022/01/10 08:24:57;;;;;;;35.20;10.50;;;;;;;;;;5086913;28;20020;-87
2022/01/10 08:27:23;;;;;;;30.17;10.30;;;;;;;;;;5106748;28;21924;-84
2022/01/10 08:29:49;;;;;;;21.90;9.88;;;;;;;;;;5108346;28;20035;-86
2022/01/10 08:32:16;;;;;;;24.80;9.50;;;1.00;99.90;;;;;;5111474;28;20091;-86
2022/01/10 08:34:42;;;;;;;26.83;10.63;;;;;;;;;;5106087;28;20035;-84
2022/01/10 08:37:08;;;;;;;33.95;10.57;;;;;;;;;;5104737;28;20772;-86
2022/01/10 08:39:34;;;;;;;26.88;10.45;;;;;;;;;;5105743;28;20099;-84
2022/01/10 08:42:00;;;;;;;34.03;12.05;;;;;;;;;;5108329;28;20028;-84
2022/01/10 08:44:26;;;;;;;32.85;13.00;;;;;;;;;;5104146;28;20027;-83
2022/01/10 08:46:53;;;;;;;31.80;11.50;;;;;;;;;;5106830;28;20095;-84
2022/01/10 08:49:19;;;;;;;24.60;9.45;;;;;;;;;;5101396;28;20040;-82
2022/01/10 08:51:46;;;;;;;28.58;8.60;;;1.20;99.90;;;;;;5101248;28;20016;-84
2022/01/10 08:54:12;;;;;;;24.90;9.57;;;1.10;99.90;;;;;;5104860;28;20024;-86
2022/01/10 08:56:38;;;;;;;40.40;10.52;;;;;;;;;;5101185;28;20035;-84
2022/01/10 08:59:05;;;;;;;18.67;7.65;;;1.30;99.90;;;;;;5100027;28;20031;-84
2022/01/10 09:01:31;;;;;;;20.83;8.25;;;;;;;;;;5098983;28;20059;-86
2022/01/10 09:03:58;;;;;;;17.67;8.57;;;;;;;;;;5095910;28;20207;-83
2022/01/10 09:06:24;;;;;;;22.98;9.60;;;1.30;99.90;;;;;;5096519;28;20051;-84
2022/01/10 09:08:51;;;;;;;31.08;9.30;;;;;;;;;;5115769;27;20029;-83
2022/01/10 09:11:17;;;;;;;28.65;8.75;;;;;;;;;;5098883;28;20035;-83
2022/01/10 09:13:43;;;;;;;22.80;8.65;;;;;;;;;;5095620;28;20114;-86
2022/01/10 09:16:11;;;;;;;24.75;8.43;;;;;;;;;;5097267;28;20035;-85
2022/01/10 09:18:41;;;;;;;24.55;9.10;;;;;;;;;;5100219;28;20726;-85
2022/01/10 09:21:07;;;;;;;27.77;9.45;;;;;;;;;;5101640;28;20032;-85
2022/01/10 09:23:34;;;;;;;28.42;9.00;;;;;;;;;;5111671;28;20055;-83
2022/01/10 09:26:00;;;;;;;19.92;8.35;;;;;;;;;;5105486;28;20023;-83
2022/01/10 09:28:25;;;;;;;21.90;9.73;;;1.30;99.90;;;;;;5121366;27;20032;-86
2022/01/10 09:30:51;;;;;;;22.65;10.55;;;4.20;99.90;;;;;;5100466;28;20051;-84
2022/01/10 09:33:17;;;;;;;18.55;8.48;;;1.30;99.90;;;;;;5101160;27;20039;-85
2022/01/10 09:35:43;;;;;;;20.77;8.95;;;1.40;99.90;;;;;;5100194;28;20447;-84
2022/01/10 09:38:10;;;;;;;18.90;8.70;;;1.50;99.90;;;;;;5103553;28;20038;-85
2022/01/10 09:40:36;;;;;;;23.83;10.38;;;;;;;;;;5103286;28;20031;-84
2022/01/10 09:43:02;;;;;;;22.38;9.68;;;1.50;99.90;;;;;;5108799;28;20027;-87
2022/01/10 09:45:28;;;;;;;24.33;9.57;;;1.20;99.90;;;;;;5108360;28;20020;-87
2022/01/10 09:47:53;;;;;;;21.38;9.88;;;3.00;99.90;;;;;;5113789;28;20015;-86
2022/01/10 09:50:19;;;;;;;24.27;10.23;;;1.60;99.90;;;;;;5115799;28;20058;-89
2022/01/10 09:52:52;;;;;;;20.77;9.27;;;2.80;99.90;;;;;;5112242;28;20070;-88
2022/01/10 09:55:18;;;;;;;19.50;10.32;;;1.70;99.90;;;;;;5108801;28;20087;-86
2022/01/10 09:57:44;;;;;;;26.25;10.77;;;3.20;99.90;;;;;;5106117;28;20030;-86
2022/01/10 10:00:11;;;;;;;26.13;10.60;;;1.70;99.90;;;;;;5110660;28;20036;-88
2022/01/10 10:02:37;;;;;;;25.80;10.55;;;;;;;;;;5103637;28;20046;-89
2022/01/10 10:05:09;;;;;;;24.40;9.57;;;1.80;99.90;;;;;;5114478;28;20040;-87
2022/01/10 10:07:39;;;;;;;20.08;9.13;;;1.80;99.90;;;;;;5109432;28;20028;-85
2022/01/10 10:10:11;;;;;;;26.77;10.10;;;1.80;99.90;;;;;;5104593;28;20038;-87
2022/01/10 10:12:42;;;;;;;25.48;10.20;;;1.80;99.90;;;;;;5103757;28;20023;-86
2022/01/10 10:15:11;;;;;;;24.60;10.27;;;4.90;99.90;;;;;;5101100;28;20072;-88
2022/01/10 10:17:38;;;;;;;24.13;10.75;;;1.90;99.90;;;;;;5105851;28;20035;-85
2022/01/10 10:20:09;;;;;;;22.48;9.13;;;2.00;99.90;;;;;;5105690;28;20492;-83
2022/01/10 10:22:38;;;;;;;23.17;9.45;;;2.00;99.90;;;;;;5103172;28;20020;-84
2022/01/10 10:25:05;;;;;;;19.10;8.98;;;;;;;;;;5102687;28;20027;-86
2022/01/10 10:27:35;;;;;;;24.17;10.68;;;;;;;;;;5103292;28;20058;-85
2022/01/10 10:30:03;;;;;;;26.45;10.60;;;;;;;;;;5107556;28;20027;-86
2022/01/10 10:32:30;;;;;;;27.13;11.50;;;;;;;;;;5106166;28;20027;-84
2022/01/10 10:34:57;;;;;;;24.88;11.05;;;2.10;99.90;;;;;;5103175;28;20126;-82
2022/01/10 10:37:23;;;;;;;28.73;11.38;;;;;;;;;;5105620;28;20023;-88
2022/01/10 10:39:48;;;;;;;23.95;10.73;;;2.10;99.90;;;;;;5104047;28;20030;-83
2022/01/10 10:42:16;;;;;;;24.75;10.98;;;2.10;99.90;;;;;;5102665;28;20024;-85
2022/01/10 10:44:45;;;;;;;22.33;9.93;;;2.20;99.90;;;;;;5107063;28;20024;-86
2022/01/10 10:47:12;;;;;;;21.92;9.27;;;;;;;;;;5115549;28;20020;-86
2022/01/10 10:49:42;;;;;;;18.77;8.48;;;;;;;;;;5108422;28;20035;-84
2022/01/10 10:52:10;;;;;;;22.88;9.93;;;2.20;99.90;;;;;;5105533;28;20031;-86
2022/01/10 10:54:36;;;;;;;24.77;9.85;;;;;;;;;;5111515;28;20021;-86
2022/01/10 10:57:05;;;;;;;19.50;9.48;;;2.10;99.90;;;;;;5110399;28;20039;-87
2022/01/10 10:59:35;;;;;;;19.60;8.88;;;;;;;;;;5108181;28;20028;-86
2022/01/10 11:02:02;;;;;;;21.90;10.18;;;;;;;;;;5111356;28;20007;-85
2022/01/10 11:04:30;;;;;;;25.63;10.75;;;2.20;99.90;;;;;;5106679;28;20789;-84
2022/01/10 11:06:56;;;;;;;29.98;11.70;;;;;;;;;;5109019;28;20044;-87
2022/01/10 11:09:22;;;;;;;27.92;11.98;;;;;;;;;;5109006;28;20011;-87
2022/01/10 11:11:49;;;;;;;29.63;12.70;;;2.20;99.90;;;;;;5107754;28;20042;-88
2022/01/10 11:14:16;;;;;;;28.90;11.27;;;;;;;;;;5110965;28;20032;-87
2022/01/10 11:16:43;;;;;;;26.02;10.88;;;2.50;99.90;;;;;;5109908;27;20042;-85
2022/01/10 11:19:26;;;;;;;26.65;11.45;;;2.40;99.90;;;;;;5117029;28;20027;-87
2022/01/10 11:22:06;;;;;;;31.60;11.98;;;2.40;99.90;;;;;;5111556;28;20023;-83
2022/01/10 11:24:58;;;;;;;27.40;12.77;;;2.30;99.90;;;;;;5128146;27;20096;-86
2022/01/10 11:27:42;;;;;;;34.17;13.00;;;2.20;99.90;;;;;;5101904;28;20027;-85
2022/01/10 11:30:31;;;;;;;32.28;13.27;;;2.20;99.90;;;;;;5108656;28;20023;-88
2022/01/10 11:33:32;;;;;;;30.90;12.98;;;0.30;99.90;;;;;;5105419;28;20091;-85
2022/01/10 11:36:07;;;;;;;30.10;11.88;;;2.20;99.90;;;;;;5064967;28;20031;-84
2022/01/10 11:38:46;;;;;;;27.88;12.73;;;2.30;99.90;;;;;;5106305;28;20041;-85
2022/01/10 11:41:15;;;;;;;36.35;14.60;;;2.40;99.90;;;;;;5109517;28;20027;-83
2022/01/10 11:44:06;;;;;;;34.20;13.10;;;2.50;99.90;;;;;;5111841;28;20028;-88
2022/01/10 11:46:46;;;;;;;32.53;14.82;;;2.40;99.90;;;;;;5108433;28;20083;-86
2022/01/10 11:49:12;;;;;;;30.88;12.52;;;;;;;;;;5125236;28;20012;-86
2022/01/10 11:51:59;;;;;;;27.88;11.45;;;2.50;99.90;;;;;;5114874;28;20058;-85
2022/01/10 11:54:41;;;;;;;27.92;10.88;;;2.50;99.90;;;;;;5109370;28;20019;-84
2022/01/10 11:57:12;;;;;;;23.58;10.68;;;2.60;99.90;;;;;;5101167;28;20008;-84
2022/01/10 11:59:42;;;;;;;22.70;9.68;;;2.30;99.90;;;;;;5110076;28;20031;-84
2022/01/10 12:02:11;;;;;;;19.55;9.63;;;4.20;99.90;;;;;;5108276;28;20489;-87
2022/01/10 12:04:41;;;;;;;24.98;10.80;;;2.70;99.90;;;;;;5108351;28;20023;-87
2022/01/10 12:07:13;;;;;;;26.00;9.57;;;2.60;99.90;;;;;;5111394;28;20012;-84
2022/01/10 12:09:40;;;;;;;22.13;9.43;;;2.70;99.90;;;;;;5111418;28;20085;-87
2022/01/10 12:12:11;;;;;;;23.63;10.38;;;2.70;99.90;;;;;;5108931;28;20046;-86
2022/01/10 12:14:37;;;;;;;23.77;9.73;;;2.30;99.90;;;;;;5126744;28;20023;-86
2022/01/10 12:17:03;;;;;;;24.17;9.98;;;2.70;99.90;;;;;;5114090;28;20032;-86
2022/01/10 12:19:29;;;;;;;18.95;9.40;;;;;;;;;;5110456;28;20008;-88
2022/01/10 12:21:58;;;;;;;20.60;10.27;;;2.80;99.90;;;;;;5108362;28;20058;-87
2022/01/10 12:24:24;;;;;;;20.50;8.82;;;;;;;;;;5111467;28;20047;-86
2022/01/10 12:26:50;;;;;;;21.27;9.00;;;;;;;;;;5109436;28;20208;-85
2022/01/10 12:29:16;;;;;;;16.77;8.68;;;2.90;99.90;;;;;;5110953;28;20141;-85
2022/01/10 12:31:44;;;;;;;20.85;9.63;;;2.50;99.90;;;;;;5111853;28;20027;-87
2022/01/10 12:34:12;;;;;;;21.85;10.27;;;2.90;99.90;;;;;;5105281;28;20023;-86
2022/01/10 12:36:39;;;;;;;21.77;9.50;;;2.20;99.90;;;;;;5112268;27;20026;-85
2022/01/10 12:39:15;;;;;;;23.85;10.57;;;3.00;99.90;;;;;;5110547;28;20027;-85
2022/01/10 12:41:41;;;;;;;21.73;10.20;;;3.00;99.90;;;;;;5119968;28;20024;-86
2022/01/10 12:44:07;;;;;;;20.35;10.30;;;3.00;99.90;;;;;;5108453;28;20126;-85
2022/01/10 12:46:33;;;;;;;23.55;10.45;;;3.00;99.90;;;;;;5105830;28;20003;-86
2022/01/10 12:49:10;;;;;;;19.77;9.90;;;2.90;99.90;;;;;;5108956;28;20095;-90
2022/01/10 12:51:43;;;;;;;25.08;11.80;;;3.00;99.90;;;;;;5109931;28;20031;-86
2022/01/10 12:54:15;;;;;;;20.35;10.05;;;3.00;99.90;;;;;;5105996;28;20179;-86
2022/01/10 12:56:41;;;;;;;27.40;11.05;;;;;;;;;;5113527;28;20099;-85
2022/01/10 12:59:07;;;;;;;27.83;12.50;;;;;;;;;;5105559;28;20055;-83
2022/01/10 13:01:33;;;;;;;34.28;13.23;;;2.90;99.90;;;;;;5107728;28;20061;-86
2022/01/10 13:04:01;;;;;;;26.33;12.57;;;2.90;99.90;;;;;;5107989;28;20008;-86
2022/01/10 13:06:31;;;;;;;33.50;15.00;;;3.00;99.90;;;;;;5113458;28;20007;-87
2022/01/10 13:08:57;;;;;;;33.17;13.88;;;;;;;;;;5105527;27;20008;-84
2022/01/10 13:11:30;;;;;;;29.00;13.38;;;;;;;;;;5107896;28;20091;-86
2022/01/10 13:14:11;;;;;;;25.95;12.73;;;3.20;99.90;;;;;;5111702;28;20058;-85
2022/01/10 13:16:38;;;;;;;29.58;13.02;;;6.10;99.90;;;;;;5125199;27;20043;-85
2022/01/10 13:19:07;;;;;;;27.08;13.77;;;3.20;99.90;;;;;;5108425;28;20035;-86
2022/01/10 13:21:41;;;;;;;32.55;14.40;;;2.40;99.90;;;;;;5103433;28;20039;-86